Terminal Aerodrome Forecast
Issued by NWS

Home | Current Version | Previous Version | Graphics & Text | Print | Product List | Glossary Off
Versions: 1 2 3 4 5 6 7 8 9 10 11 12 13 14 15 16 17 18 19

000
FTUS43 KGRB 302320
TAFCWA
TAF
KCWA 302320Z 0100/0124 08011G15KT P6SM VCSH SCT050 BKN100
     FM010200 07009KT P6SM VCSH SCT030 BKN050 WS018/08030KT
     FM010900 04008KT 6SM -RA SCT025 BKN040 WS018/08030KT
     FM011300 05011G18KT P6SM BKN035
     FM011800 04012G21KT P6SM SCT040 BKN100=

USA.gov is the U.S. government's official web portal to all federal, state and local government web resources and services.